Westport, WA

10:55 AM PDT on April 01, 2015 (GMT -0700)
Jim/Jamie's Grayland Weather | | Change Station
CLOSE
Current Station
Personal Weather Station
Location: Grayland, WA
Elevation: 20 ft
Nearby Weather Stations

Elev 20 ft 46.84 °N, 124.11 °W | Updated 9 seconds ago

Overcast
Overcast
48.9 °F
Feels Like 46 °F
N
6.9
Wind Variable Wind from WSW
Gusts 6.9 mph

Today
High -- | Low -- °F
--% Chance of Precip.
Yesterday
High -- | Low -- °F
Precip. -- in
6:55 AM 7:45 PM
Waxing Gibbous, 93% visible
Pressure 30.31 in
Visibility 7.0 miles
Clouds Few 2600 ft
Mostly Cloudy 4600 ft
Overcast 6000 ft
Windchill 46 °F
Dew Point 40 °F
Humidity 72%
Rainfall 0.11 in
Snow Depth Not available.
UV 1 out of 12
Pollen 4.50 out of 12
Air Quality Not available.
Flu Activity Not available.
METAR KHQM 011653Z AUTO 06004KT 7SM FEW026 BKN046 OVC060 08/06 A3030 RMK AO2 SLP263 T00780061

More Conditions Fewer Conditions

Pressure 30.31 in
Visibility 7.0 miles
Clouds Few 2600 ft
Mostly Cloudy 4600 ft
Overcast 6000 ft
Windchill 46 °F
Dew Point 40 °F
Humidity 72%
Rainfall 0.11 in
Snow Depth Not available.
UV 1 out of 12
Pollen 4.50 out of 12
Air Quality Not available.
Flu Activity Not available.
METAR KHQM 011653Z AUTO 06004KT 7SM FEW026 BKN046 OVC060 08/06 A3030 RMK AO2 SLP263 T00780061

More Conditions Fewer Conditions

10-Day Weather Forecast

Almanac

Astronomy

Apr. 01, 2015 Rise Set
Actual Time
Civil Twilight
Nautical Twilight
Astronomical Twilight
Moon
Length of Visible Light
Length of Day
Tomorrow will be .
, % of the Moon is Illuminated

Today's Extremes

State Highs State Lows

Community

WunderPhotos

Upload Photos

1,810,018 photos uploaded!

WunderBlogs® & News

Nearby

Air Quality

  Air Quality AQ Index Pollutant
Not available.

Snow Depth

Station Depth Elevation

Earthquake Activity

City Distance Mag. Time & Date
Minimum magnitude displayed is 2.5.

Coastal Water Temperatures

Place Temperature

Stations

Nearby Weather Stations

Station Location Temp. Windchill Dew Point Humidity Wind Precip. Elev Updated Type